sensor_id;sensor_type;location;lat;lon;timestamp;temperature;humidity
17994;DHT22;9122;48.406;9.984;2023-03-21T00:02:22;11.60;90.50
17994;DHT22;9122;48.406;9.984;2023-03-21T00:05:07;11.60;90.60
17994;DHT22;9122;48.406;9.984;2023-03-21T00:07:52;11.60;90.70
17994;DHT22;9122;48.406;9.984;2023-03-21T00:10:37;11.50;90.70
17994;DHT22;9122;48.406;9.984;2023-03-21T00:13:24;11.50;90.80
17994;DHT22;9122;48.406;9.984;2023-03-21T00:16:12;11.50;90.80
17994;DHT22;9122;48.406;9.984;2023-03-21T00:19:01;11.50;90.80
17994;DHT22;9122;48.406;9.984;2023-03-21T00:21:46;11.50;90.90
17994;DHT22;9122;48.406;9.984;2023-03-21T00:24:37;11.50;91.10
17994;DHT22;9122;48.406;9.984;2023-03-21T00:27:22;11.50;91.00
17994;DHT22;9122;48.406;9.984;2023-03-21T00:30:11;11.50;91.80
17994;DHT22;9122;48.406;9.984;2023-03-21T00:32:56;11.50;91.00
17994;DHT22;9122;48.406;9.984;2023-03-21T00:35:41;11.50;91.00
17994;DHT22;9122;48.406;9.984;2023-03-21T00:38:31;11.50;91.40
17994;DHT22;9122;48.406;9.984;2023-03-21T00:41:15;11.40;91.00
17994;DHT22;9122;48.406;9.984;2023-03-21T00:44:03;11.40;91.10
17994;DHT22;9122;48.406;9.984;2023-03-21T00:46:47;11.40;91.10
17994;DHT22;9122;48.406;9.984;2023-03-21T00:49:32;11.40;91.10
17994;DHT22;9122;48.406;9.984;2023-03-21T00:52:21;11.40;91.10
17994;DHT22;9122;48.406;9.984;2023-03-21T00:55:06;11.40;91.10
17994;DHT22;9122;48.406;9.984;2023-03-21T00:57:51;11.40;91.20
17994;DHT22;9122;48.406;9.984;2023-03-21T01:00:35;11.40;91.50
17994;DHT22;9122;48.406;9.984;2023-03-21T01:03:20;11.30;91.10
17994;DHT22;9122;48.406;9.984;2023-03-21T01:06:05;11.30;91.10
17994;DHT22;9122;48.406;9.984;2023-03-21T01:08:50;11.30;91.10
17994;DHT22;9122;48.406;9.984;2023-03-21T01:11:34;11.30;91.20
17994;DHT22;9122;48.406;9.984;2023-03-21T01:14:22;11.30;91.10
17994;DHT22;9122;48.406;9.984;2023-03-21T01:17:06;11.30;91.10
17994;DHT22;9122;48.406;9.984;2023-03-21T01:19:54;11.30;91.30
17994;DHT22;9122;48.406;9.984;2023-03-21T01:22:38;11.30;91.50
17994;DHT22;9122;48.406;9.984;2023-03-21T01:25:23;11.30;91.60
17994;DHT22;9122;48.406;9.984;2023-03-21T01:28:08;11.20;91.50
17994;DHT22;9122;48.406;9.984;2023-03-21T01:30:54;11.20;91.50
17994;DHT22;9122;48.406;9.984;2023-03-21T01:33:38;11.20;91.60
17994;DHT22;9122;48.406;9.984;2023-03-21T01:36:25;11.20;91.60
17994;DHT22;9122;48.406;9.984;2023-03-21T01:39:09;11.20;91.60
17994;DHT22;9122;48.406;9.984;2023-03-21T01:41:54;11.20;91.60
17994;DHT22;9122;48.406;9.984;2023-03-21T01:48:14;11.20;91.40
17994;DHT22;9122;48.406;9.984;2023-03-21T01:50:59;11.20;91.30
17994;DHT22;9122;48.406;9.984;2023-03-21T01:53:47;11.20;91.30
17994;DHT22;9122;48.406;9.984;2023-03-21T01:56:34;11.20;91.30
17994;DHT22;9122;48.406;9.984;2023-03-21T01:59:28;11.10;91.30
17994;DHT22;9122;48.406;9.984;2023-03-21T02:02:19;11.10;91.30
17994;DHT22;9122;48.406;9.984;2023-03-21T02:05:06;11.10;91.40
17994;DHT22;9122;48.406;9.984;2023-03-21T02:07:51;11.10;91.50
17994;DHT22;9122;48.406;9.984;2023-03-21T02:10:36;11.10;91.50
17994;DHT22;9122;48.406;9.984;2023-03-21T02:13:20;11.10;91.60
17994;DHT22;9122;48.406;9.984;2023-03-21T02:23:36;11.00;91.40
17994;DHT22;9122;48.406;9.984;2023-03-21T02:35:52;11.00;92.10
17994;DHT22;9122;48.406;9.984;2023-03-21T02:39:04;11.00;92.20
17994;DHT22;9122;48.406;9.984;2023-03-21T02:41:58;11.00;92.20
17994;DHT22;9122;48.406;9.984;2023-03-21T02:47:40;10.90;92.20
17994;DHT22;9122;48.406;9.984;2023-03-21T02:50:26;10.90;92.20
17994;DHT22;9122;48.406;9.984;2023-03-21T02:53:15;10.90;92.10
17994;DHT22;9122;48.406;9.984;2023-03-21T02:56:02;10.90;92.20
17994;DHT22;9122;48.406;9.984;2023-03-21T02:58:47;10.90;92.30
17994;DHT22;9122;48.406;9.984;2023-03-21T03:01:32;10.90;92.30
17994;DHT22;9122;48.406;9.984;2023-03-21T03:04:26;10.90;92.30
17994;DHT22;9122;48.406;9.984;2023-03-21T03:19:27;10.80;92.50
17994;DHT22;9122;48.406;9.984;2023-03-21T03:22:16;10.80;92.90
17994;DHT22;9122;48.406;9.984;2023-03-21T03:25:08;10.80;92.60
17994;DHT22;9122;48.406;9.984;2023-03-21T03:27:55;10.70;92.60
17994;DHT22;9122;48.406;9.984;2023-03-21T03:30:41;10.80;92.60
17994;DHT22;9122;48.406;9.984;2023-03-21T03:33:27;10.70;92.60
17994;DHT22;9122;48.406;9.984;2023-03-21T03:36:14;10.70;92.70
17994;DHT22;9122;48.406;9.984;2023-03-21T03:39:06;10.70;92.70
17994;DHT22;9122;48.406;9.984;2023-03-21T03:42:01;11.20;92.80
17994;DHT22;9122;48.406;9.984;2023-03-21T03:44:47;10.70;92.70
17994;DHT22;9122;48.406;9.984;2023-03-21T03:47:52;10.70;92.80
17994;DHT22;9122;48.406;9.984;2023-03-21T03:50:46;10.70;92.90
17994;DHT22;9122;48.406;9.984;2023-03-21T03:53:45;10.60;92.90
17994;DHT22;9122;48.406;9.984;2023-03-21T03:56:31;10.60;93.00
17994;DHT22;9122;48.406;9.984;2023-03-21T03:59:16;10.60;93.10
17994;DHT22;9122;48.406;9.984;2023-03-21T04:02:07;10.60;93.20
17994;DHT22;9122;48.406;9.984;2023-03-21T04:04:52;10.60;93.20
17994;DHT22;9122;48.406;9.984;2023-03-21T04:07:36;10.50;93.20
17994;DHT22;9122;48.406;9.984;2023-03-21T04:10:21;10.50;93.30
17994;DHT22;9122;48.406;9.984;2023-03-21T04:13:05;10.50;93.30
17994;DHT22;9122;48.406;9.984;2023-03-21T04:15:50;10.50;93.40
17994;DHT22;9122;48.406;9.984;2023-03-21T04:18:34;10.50;93.40
17994;DHT22;9122;48.406;9.984;2023-03-21T04:21:19;10.50;93.40
17994;DHT22;9122;48.406;9.984;2023-03-21T04:24:05;10.40;93.50
17994;DHT22;9122;48.406;9.984;2023-03-21T04:26:50;10.40;93.50
17994;DHT22;9122;48.406;9.984;2023-03-21T04:29:37;10.50;93.50
17994;DHT22;9122;48.406;9.984;2023-03-21T04:32:21;10.40;93.50
17994;DHT22;9122;48.406;9.984;2023-03-21T04:35:09;10.40;93.50
17994;DHT22;9122;48.406;9.984;2023-03-21T04:37:55;10.40;93.50
17994;DHT22;9122;48.406;9.984;2023-03-21T04:40:39;10.40;93.50
17994;DHT22;9122;48.406;9.984;2023-03-21T04:43:24;10.40;93.60
17994;DHT22;9122;48.406;9.984;2023-03-21T04:46:09;10.40;93.60
17994;DHT22;9122;48.406;9.984;2023-03-21T04:48:54;10.40;93.60
17994;DHT22;9122;48.406;9.984;2023-03-21T04:51:38;10.40;93.60
17994;DHT22;9122;48.406;9.984;2023-03-21T04:54:23;10.30;93.60
17994;DHT22;9122;48.406;9.984;2023-03-21T04:57:07;10.30;93.60
17994;DHT22;9122;48.406;9.984;2023-03-21T04:59:52;10.30;93.70
17994;DHT22;9122;48.406;9.984;2023-03-21T05:02:37;10.30;93.70
17994;DHT22;9122;48.406;9.984;2023-03-21T05:05:21;10.30;93.70
17994;DHT22;9122;48.406;9.984;2023-03-21T05:08:06;10.30;93.70
17994;DHT22;9122;48.406;9.984;2023-03-21T05:10:50;10.20;93.70
17994;DHT22;9122;48.406;9.984;2023-03-21T05:13:35;10.20;93.70
17994;DHT22;9122;48.406;9.984;2023-03-21T05:16:20;10.20;93.70
17994;DHT22;9122;48.406;9.984;2023-03-21T05:19:10;10.20;93.70
17994;DHT22;9122;48.406;9.984;2023-03-21T05:21:57;10.20;93.60
17994;DHT22;9122;48.406;9.984;2023-03-21T05:24:42;10.20;93.60
17994;DHT22;9122;48.406;9.984;2023-03-21T05:27:26;10.20;93.50
17994;DHT22;9122;48.406;9.984;2023-03-21T05:30:20;10.20;93.50
17994;DHT22;9122;48.406;9.984;2023-03-21T05:33:05;10.20;93.50
17994;DHT22;9122;48.406;9.984;2023-03-21T05:35:53;10.20;93.70
17994;DHT22;9122;48.406;9.984;2023-03-21T05:38:38;10.20;93.60
17994;DHT22;9122;48.406;9.984;2023-03-21T05:41:28;10.20;93.70
17994;DHT22;9122;48.406;9.984;2023-03-21T05:44:13;10.20;93.70
17994;DHT22;9122;48.406;9.984;2023-03-21T05:46:57;10.20;93.70
17994;DHT22;9122;48.406;9.984;2023-03-21T05:49:41;10.20;94.00
17994;DHT22;9122;48.406;9.984;2023-03-21T05:52:26;10.20;93.80
17994;DHT22;9122;48.406;9.984;2023-03-21T05:55:12;10.20;93.50
17994;DHT22;9122;48.406;9.984;2023-03-21T05:57:57;10.20;93.60
17994;DHT22;9122;48.406;9.984;2023-03-21T06:00:43;10.20;93.50
17994;DHT22;9122;48.406;9.984;2023-03-21T06:03:31;10.20;93.80
17994;DHT22;9122;48.406;9.984;2023-03-21T06:06:15;10.20;93.90
17994;DHT22;9122;48.406;9.984;2023-03-21T06:09:00;10.20;94.00
17994;DHT22;9122;48.406;9.984;2023-03-21T06:11:46;10.20;94.00
17994;DHT22;9122;48.406;9.984;2023-03-21T06:14:31;10.20;94.00
17994;DHT22;9122;48.406;9.984;2023-03-21T06:17:16;10.20;94.00
17994;DHT22;9122;48.406;9.984;2023-03-21T06:20:03;10.20;94.00
17994;DHT22;9122;48.406;9.984;2023-03-21T06:22:50;10.20;94.10
17994;DHT22;9122;48.406;9.984;2023-03-21T06:25:34;10.20;94.00
17994;DHT22;9122;48.406;9.984;2023-03-21T06:28:19;10.20;94.00
17994;DHT22;9122;48.406;9.984;2023-03-21T06:31:04;10.20;94.10
17994;DHT22;9122;48.406;9.984;2023-03-21T06:33:48;10.20;94.10
17994;DHT22;9122;48.406;9.984;2023-03-21T06:36:33;10.20;94.20
17994;DHT22;9122;48.406;9.984;2023-03-21T06:39:18;10.20;94.20
17994;DHT22;9122;48.406;9.984;2023-03-21T06:42:02;10.30;94.20
17994;DHT22;9122;48.406;9.984;2023-03-21T06:44:47;10.20;94.30
17994;DHT22;9122;48.406;9.984;2023-03-21T06:47:51;10.20;94.10
17994;DHT22;9122;48.406;9.984;2023-03-21T06:50:36;10.30;94.30
17994;DHT22;9122;48.406;9.984;2023-03-21T06:53:22;10.30;94.20
17994;DHT22;9122;48.406;9.984;2023-03-21T06:56:12;10.30;94.10
17994;DHT22;9122;48.406;9.984;2023-03-21T06:58:59;10.30;94.00
17994;DHT22;9122;48.406;9.984;2023-03-21T07:01:45;10.30;93.90
17994;DHT22;9122;48.406;9.984;2023-03-21T07:07:14;10.40;93.70
17994;DHT22;9122;48.406;9.984;2023-03-21T07:09:58;10.40;94.20
17994;DHT22;9122;48.406;9.984;2023-03-21T07:12:43;10.40;93.80
17994;DHT22;9122;48.406;9.984;2023-03-21T07:15:28;10.40;93.70
17994;DHT22;9122;48.406;9.984;2023-03-21T07:18:12;10.40;93.60
17994;DHT22;9122;48.406;9.984;2023-03-21T07:20:57;10.50;93.60
17994;DHT22;9122;48.406;9.984;2023-03-21T07:23:44;10.50;93.60
17994;DHT22;9122;48.406;9.984;2023-03-21T07:26:30;10.50;93.50
17994;DHT22;9122;48.406;9.984;2023-03-21T07:29:14;10.50;93.50
17994;DHT22;9122;48.406;9.984;2023-03-21T07:32:00;10.60;93.50
17994;DHT22;9122;48.406;9.984;2023-03-21T07:34:44;10.60;93.40
17994;DHT22;9122;48.406;9.984;2023-03-21T07:37:29;10.60;93.30
17994;DHT22;9122;48.406;9.984;2023-03-21T07:40:13;10.70;93.40
17994;DHT22;9122;48.406;9.984;2023-03-21T07:42:58;10.70;93.30
17994;DHT22;9122;48.406;9.984;2023-03-21T07:45:44;10.80;93.40
17994;DHT22;9122;48.406;9.984;2023-03-21T07:48:32;10.80;93.70
17994;DHT22;9122;48.406;9.984;2023-03-21T07:51:16;10.80;93.30
17994;DHT22;9122;48.406;9.984;2023-03-21T07:54:01;10.90;93.20
17994;DHT22;9122;48.406;9.984;2023-03-21T07:56:45;10.90;93.80
17994;DHT22;9122;48.406;9.984;2023-03-21T07:59:30;11.00;93.30
17994;DHT22;9122;48.406;9.984;2023-03-21T08:02:17;11.00;93.00
17994;DHT22;9122;48.406;9.984;2023-03-21T08:05:01;11.10;93.10
17994;DHT22;9122;48.406;9.984;2023-03-21T08:07:49;11.20;93.40
17994;DHT22;9122;48.406;9.984;2023-03-21T08:10:34;11.30;92.90
17994;DHT22;9122;48.406;9.984;2023-03-21T08:13:19;11.40;92.80
17994;DHT22;9122;48.406;9.984;2023-03-21T08:16:09;11.50;92.60
17994;DHT22;9122;48.406;9.984;2023-03-21T08:18:53;11.50;92.50
17994;DHT22;9122;48.406;9.984;2023-03-21T08:21:38;11.60;92.40
17994;DHT22;9122;48.406;9.984;2023-03-21T08:24:22;11.70;92.40
17994;DHT22;9122;48.406;9.984;2023-03-21T08:27:09;11.70;92.00
17994;DHT22;9122;48.406;9.984;2023-03-21T08:29:54;11.80;92.00
17994;DHT22;9122;48.406;9.984;2023-03-21T08:32:39;11.90;91.80
17994;DHT22;9122;48.406;9.984;2023-03-21T08:35:25;11.90;91.70
17994;DHT22;9122;48.406;9.984;2023-03-21T08:38:09;12.00;91.70
17994;DHT22;9122;48.406;9.984;2023-03-21T08:40:57;12.00;91.70
17994;DHT22;9122;48.406;9.984;2023-03-21T08:43:43;12.10;91.60
17994;DHT22;9122;48.406;9.984;2023-03-21T08:46:28;12.10;91.30
17994;DHT22;9122;48.406;9.984;2023-03-21T08:49:12;12.20;91.10
17994;DHT22;9122;48.406;9.984;2023-03-21T08:51:57;12.20;90.60
17994;DHT22;9122;48.406;9.984;2023-03-21T08:54:42;12.20;90.40
17994;DHT22;9122;48.406;9.984;2023-03-21T08:57:29;12.30;90.40
17994;DHT22;9122;48.406;9.984;2023-03-21T09:00:16;12.30;90.30
17994;DHT22;9122;48.406;9.984;2023-03-21T09:03:01;12.30;90.20
17994;DHT22;9122;48.406;9.984;2023-03-21T09:05:47;12.30;90.50
17994;DHT22;9122;48.406;9.984;2023-03-21T09:08:33;12.40;90.20
17994;DHT22;9122;48.406;9.984;2023-03-21T09:11:18;12.50;90.30
17994;DHT22;9122;48.406;9.984;2023-03-21T09:14:02;12.60;90.30
17994;DHT22;9122;48.406;9.984;2023-03-21T09:16:47;12.60;90.10
17994;DHT22;9122;48.406;9.984;2023-03-21T09:19:32;12.70;90.00
17994;DHT22;9122;48.406;9.984;2023-03-21T09:22:18;12.80;89.60
17994;DHT22;9122;48.406;9.984;2023-03-21T09:25:05;12.90;89.20
17994;DHT22;9122;48.406;9.984;2023-03-21T09:27:51;12.90;88.70
17994;DHT22;9122;48.406;9.984;2023-03-21T09:30:38;13.30;88.20
17994;DHT22;9122;48.406;9.984;2023-03-21T09:33:24;13.00;87.50
17994;DHT22;9122;48.406;9.984;2023-03-21T09:36:09;12.90;86.90
17994;DHT22;9122;48.406;9.984;2023-03-21T09:39:03;13.00;86.50
17994;DHT22;9122;48.406;9.984;2023-03-21T09:42:15;13.00;86.60
17994;DHT22;9122;48.406;9.984;2023-03-21T09:45:20;13.10;86.40
17994;DHT22;9122;48.406;9.984;2023-03-21T09:48:18;13.10;85.60
17994;DHT22;9122;48.406;9.984;2023-03-21T09:51:15;13.20;85.40
17994;DHT22;9122;48.406;9.984;2023-03-21T09:54:13;13.30;85.70
17994;DHT22;9122;48.406;9.984;2023-03-21T10:00:14;13.60;85.60
17994;DHT22;9122;48.406;9.984;2023-03-21T10:03:09;13.80;85.20
17994;DHT22;9122;48.406;9.984;2023-03-21T10:05:58;14.00;84.70
17994;DHT22;9122;48.406;9.984;2023-03-21T10:08:45;14.10;83.80
17994;DHT22;9122;48.406;9.984;2023-03-21T10:14:43;14.30;83.50
17994;DHT22;9122;48.406;9.984;2023-03-21T10:17:35;14.50;83.10
17994;DHT22;9122;48.406;9.984;2023-03-21T10:20:33;14.60;82.60
17994;DHT22;9122;48.406;9.984;2023-03-21T10:23:21;14.80;81.90
17994;DHT22;9122;48.406;9.984;2023-03-21T10:26:06;14.90;81.10
17994;DHT22;9122;48.406;9.984;2023-03-21T10:28:51;15.00;81.00
17994;DHT22;9122;48.406;9.984;2023-03-21T10:31:39;15.10;80.40
17994;DHT22;9122;48.406;9.984;2023-03-21T10:37:28;15.30;79.00
17994;DHT22;9122;48.406;9.984;2023-03-21T10:40:16;15.40;78.40
17994;DHT22;9122;48.406;9.984;2023-03-21T10:43:37;15.40;78.00
17994;DHT22;9122;48.406;9.984;2023-03-21T10:46:25;15.50;77.60
17994;DHT22;9122;48.406;9.984;2023-03-21T10:49:14;15.60;77.50
17994;DHT22;9122;48.406;9.984;2023-03-21T10:52:03;15.70;77.20
17994;DHT22;9122;48.406;9.984;2023-03-21T10:54:49;15.70;77.10
17994;DHT22;9122;48.406;9.984;2023-03-21T10:57:34;15.70;76.10
17994;DHT22;9122;48.406;9.984;2023-03-21T11:00:23;15.80;75.80
17994;DHT22;9122;48.406;9.984;2023-03-21T11:03:36;15.80;75.50
17994;DHT22;9122;48.406;9.984;2023-03-21T11:06:22;15.90;75.60
17994;DHT22;9122;48.406;9.984;2023-03-21T11:09:17;15.90;75.30
17994;DHT22;9122;48.406;9.984;2023-03-21T11:12:10;16.00;75.20
17994;DHT22;9122;48.406;9.984;2023-03-21T11:14:55;16.00;75.40
17994;DHT22;9122;48.406;9.984;2023-03-21T11:17:40;16.10;75.50
17994;DHT22;9122;48.406;9.984;2023-03-21T11:20:28;16.10;75.50
17994;DHT22;9122;48.406;9.984;2023-03-21T11:23:18;16.10;75.70
17994;DHT22;9122;48.406;9.984;2023-03-21T11:26:09;16.10;75.50
17994;DHT22;9122;48.406;9.984;2023-03-21T11:28:54;16.20;75.50
17994;DHT22;9122;48.406;9.984;2023-03-21T11:31:40;16.20;75.00
17994;DHT22;9122;48.406;9.984;2023-03-21T11:34:30;16.30;74.40
17994;DHT22;9122;48.406;9.984;2023-03-21T11:37:20;16.50;74.20
17994;DHT22;9122;48.406;9.984;2023-03-21T11:46:05;16.50;72.70
17994;DHT22;9122;48.406;9.984;2023-03-21T11:48:50;16.60;72.40
17994;DHT22;9122;48.406;9.984;2023-03-21T11:54:51;16.70;71.80
17994;DHT22;9122;48.406;9.984;2023-03-21T12:06:35;16.80;70.70
17994;DHT22;9122;48.406;9.984;2023-03-21T12:31:22;16.90;69.60
17994;DHT22;9122;48.406;9.984;2023-03-21T12:49:00;16.90;69.70
17994;DHT22;9122;48.406;9.984;2023-03-21T12:51:48;16.90;69.60
17994;DHT22;9122;48.406;9.984;2023-03-21T12:57:39;16.90;70.30
17994;DHT22;9122;48.406;9.984;2023-03-21T13:00:31;16.90;70.40
17994;DHT22;9122;48.406;9.984;2023-03-21T13:03:20;16.90;70.50
17994;DHT22;9122;48.406;9.984;2023-03-21T13:06:10;16.90;70.50
17994;DHT22;9122;48.406;9.984;2023-03-21T13:09:02;16.90;70.60
17994;DHT22;9122;48.406;9.984;2023-03-21T13:11:52;17.00;70.80
17994;DHT22;9122;48.406;9.984;2023-03-21T13:14:51;17.00;70.80
17994;DHT22;9122;48.406;9.984;2023-03-21T13:17:44;17.00;71.40
17994;DHT22;9122;48.406;9.984;2023-03-21T13:23:57;17.00;70.90
17994;DHT22;9122;48.406;9.984;2023-03-21T13:26:46;17.00;70.40
17994;DHT22;9122;48.406;9.984;2023-03-21T13:29:45;17.00;70.30
17994;DHT22;9122;48.406;9.984;2023-03-21T13:32:38;17.00;69.70
17994;DHT22;9122;48.406;9.984;2023-03-21T13:38:27;17.00;69.40
17994;DHT22;9122;48.406;9.984;2023-03-21T13:41:16;17.00;69.80
17994;DHT22;9122;48.406;9.984;2023-03-21T13:46:54;17.00;69.20
17994;DHT22;9122;48.406;9.984;2023-03-21T13:49:39;17.00;69.30
17994;DHT22;9122;48.406;9.984;2023-03-21T13:52:26;17.00;69.60
17994;DHT22;9122;48.406;9.984;2023-03-21T13:55:18;17.00;69.20
17994;DHT22;9122;48.406;9.984;2023-03-21T13:59:04;17.00;68.90
17994;DHT22;9122;48.406;9.984;2023-03-21T14:01:33;17.00;68.80
17994;DHT22;9122;48.406;9.984;2023-03-21T14:04:19;17.00;68.30
17994;DHT22;9122;48.406;9.984;2023-03-21T14:07:09;16.90;67.70
17994;DHT22;9122;48.406;9.984;2023-03-21T14:10:03;16.90;68.00
17994;DHT22;9122;48.406;9.984;2023-03-21T14:12:49;16.90;67.90
17994;DHT22;9122;48.406;9.984;2023-03-21T14:15:50;16.90;67.90
17994;DHT22;9122;48.406;9.984;2023-03-21T14:18:49;17.00;68.10
17994;DHT22;9122;48.406;9.984;2023-03-21T14:21:34;16.90;69.20
17994;DHT22;9122;48.406;9.984;2023-03-21T14:24:19;16.90;69.20
17994;DHT22;9122;48.406;9.984;2023-03-21T14:27:04;16.90;68.80
17994;DHT22;9122;48.406;9.984;2023-03-21T14:29:50;16.90;68.90
17994;DHT22;9122;48.406;9.984;2023-03-21T14:32:36;16.90;68.90
17994;DHT22;9122;48.406;9.984;2023-03-21T14:35:21;16.90;68.20
17994;DHT22;9122;48.406;9.984;2023-03-21T14:38:16;16.90;68.20
17994;DHT22;9122;48.406;9.984;2023-03-21T14:41:02;16.80;67.80
17994;DHT22;9122;48.406;9.984;2023-03-21T14:49:42;16.80;67.00
17994;DHT22;9122;48.406;9.984;2023-03-21T14:52:32;16.80;66.30
17994;DHT22;9122;48.406;9.984;2023-03-21T14:55:17;16.80;66.40
17994;DHT22;9122;48.406;9.984;2023-03-21T14:58:02;16.70;66.20
17994;DHT22;9122;48.406;9.984;2023-03-21T15:00:48;16.70;65.90
17994;DHT22;9122;48.406;9.984;2023-03-21T15:03:34;16.80;66.40
17994;DHT22;9122;48.406;9.984;2023-03-21T15:06:18;16.80;66.30
17994;DHT22;9122;48.406;9.984;2023-03-21T15:09:03;16.70;66.70
17994;DHT22;9122;48.406;9.984;2023-03-21T15:11:50;16.70;66.70
17994;DHT22;9122;48.406;9.984;2023-03-21T15:14:35;16.70;66.90
17994;DHT22;9122;48.406;9.984;2023-03-21T15:17:21;16.70;67.60
17994;DHT22;9122;48.406;9.984;2023-03-21T15:20:12;16.70;67.80
17994;DHT22;9122;48.406;9.984;2023-03-21T15:23:01;16.70;68.10
17994;DHT22;9122;48.406;9.984;2023-03-21T15:25:46;16.70;68.40
17994;DHT22;9122;48.406;9.984;2023-03-21T15:28:33;16.70;68.80
17994;DHT22;9122;48.406;9.984;2023-03-21T15:31:20;16.70;69.10
17994;DHT22;9122;48.406;9.984;2023-03-21T15:34:05;16.70;69.40
17994;DHT22;9122;48.406;9.984;2023-03-21T15:36:55;16.70;69.60
17994;DHT22;9122;48.406;9.984;2023-03-21T15:39:40;16.70;69.70
17994;DHT22;9122;48.406;9.984;2023-03-21T15:42:26;16.60;69.20
17994;DHT22;9122;48.406;9.984;2023-03-21T15:45:23;16.60;70.10
17994;DHT22;9122;48.406;9.984;2023-03-21T15:48:12;16.60;70.30
17994;DHT22;9122;48.406;9.984;2023-03-21T15:51:05;16.70;69.70
17994;DHT22;9122;48.406;9.984;2023-03-21T15:53:51;16.60;68.30
17994;DHT22;9122;48.406;9.984;2023-03-21T15:56:37;16.60;67.60
17994;DHT22;9122;48.406;9.984;2023-03-21T15:59:29;16.60;68.10
17994;DHT22;9122;48.406;9.984;2023-03-21T16:02:22;16.60;67.90
17994;DHT22;9122;48.406;9.984;2023-03-21T16:05:28;16.60;67.20
17994;DHT22;9122;48.406;9.984;2023-03-21T16:08:25;16.60;66.70
17994;DHT22;9122;48.406;9.984;2023-03-21T16:14:09;16.60;66.60
17994;DHT22;9122;48.406;9.984;2023-03-21T16:16:56;16.60;66.10
17994;DHT22;9122;48.406;9.984;2023-03-21T16:19:42;16.60;65.70
17994;DHT22;9122;48.406;9.984;2023-03-21T16:22:27;16.50;65.70
17994;DHT22;9122;48.406;9.984;2023-03-21T16:25:13;16.50;66.30
17994;DHT22;9122;48.406;9.984;2023-03-21T16:27:58;16.50;65.70
17994;DHT22;9122;48.406;9.984;2023-03-21T16:30:43;16.50;65.00
17994;DHT22;9122;48.406;9.984;2023-03-21T16:33:28;16.50;64.50
17994;DHT22;9122;48.406;9.984;2023-03-21T16:36:17;16.50;64.70
17994;DHT22;9122;48.406;9.984;2023-03-21T16:39:18;16.40;65.60
17994;DHT22;9122;48.406;9.984;2023-03-21T16:42:04;16.40;66.50
17994;DHT22;9122;48.406;9.984;2023-03-21T16:44:48;16.40;67.00
17994;DHT22;9122;48.406;9.984;2023-03-21T16:47:33;16.40;67.30
17994;DHT22;9122;48.406;9.984;2023-03-21T16:50:35;16.40;67.40
17994;DHT22;9122;48.406;9.984;2023-03-21T16:53:22;16.40;69.20
17994;DHT22;9122;48.406;9.984;2023-03-21T16:58:56;16.40;70.50
17994;DHT22;9122;48.406;9.984;2023-03-21T17:01:42;16.30;71.30
17994;DHT22;9122;48.406;9.984;2023-03-21T17:04:29;16.30;72.50
17994;DHT22;9122;48.406;9.984;2023-03-21T17:10:03;16.30;73.40
17994;DHT22;9122;48.406;9.984;2023-03-21T17:12:48;16.20;75.40
17994;DHT22;9122;48.406;9.984;2023-03-21T17:18:23;16.20;76.20
17994;DHT22;9122;48.406;9.984;2023-03-21T17:21:16;16.10;78.50
17994;DHT22;9122;48.406;9.984;2023-03-21T17:32:18;16.10;74.40
17994;DHT22;9122;48.406;9.984;2023-03-21T17:40:35;16.00;75.10
17994;DHT22;9122;48.406;9.984;2023-03-21T17:46:09;15.90;76.10
17994;DHT22;9122;48.406;9.984;2023-03-21T17:51:41;15.90;76.60
17994;DHT22;9122;48.406;9.984;2023-03-21T17:57:11;15.80;74.90
17994;DHT22;9122;48.406;9.984;2023-03-21T17:59:57;15.80;82.60
17994;DHT22;9122;48.406;9.984;2023-03-21T18:03:36;17.60;82.10
17994;DHT22;9122;48.406;9.984;2023-03-21T18:06:32;17.90;82.70
17994;DHT22;9122;48.406;9.984;2023-03-21T18:12:04;15.70;78.60
17994;DHT22;9122;48.406;9.984;2023-03-21T18:14:52;16.10;83.30
17994;DHT22;9122;48.406;9.984;2023-03-21T18:17:40;18.00;83.10
17994;DHT22;9122;48.406;9.984;2023-03-21T18:20:41;15.60;84.10
17994;DHT22;9122;48.406;9.984;2023-03-21T18:23:25;15.80;82.80
17994;DHT22;9122;48.406;9.984;2023-03-21T18:26:13;15.70;80.60
17994;DHT22;9122;48.406;9.984;2023-03-21T18:28:58;15.60;80.30
17994;DHT22;9122;48.406;9.984;2023-03-21T18:31:42;15.60;80.20
17994;DHT22;9122;48.406;9.984;2023-03-21T18:34:27;15.60;79.80
17994;DHT22;9122;48.406;9.984;2023-03-21T18:37:12;15.60;79.80
17994;DHT22;9122;48.406;9.984;2023-03-21T18:39:57;15.60;79.80
17994;DHT22;9122;48.406;9.984;2023-03-21T18:42:42;15.50;79.30
17994;DHT22;9122;48.406;9.984;2023-03-21T18:45:28;15.50;78.90
17994;DHT22;9122;48.406;9.984;2023-03-21T18:48:15;15.50;78.90
17994;DHT22;9122;48.406;9.984;2023-03-21T18:50:59;15.50;79.40
17994;DHT22;9122;48.406;9.984;2023-03-21T18:53:44;15.50;79.50
17994;DHT22;9122;48.406;9.984;2023-03-21T19:02:06;15.40;80.40
17994;DHT22;9122;48.406;9.984;2023-03-21T19:07:40;15.70;80.20
17994;DHT22;9122;48.406;9.984;2023-03-21T19:10:25;15.40;80.30
17994;DHT22;9122;48.406;9.984;2023-03-21T19:13:10;15.40;80.50
17994;DHT22;9122;48.406;9.984;2023-03-21T19:15:55;15.30;80.30
17994;DHT22;9122;48.406;9.984;2023-03-21T19:18:40;15.30;79.90
17994;DHT22;9122;48.406;9.984;2023-03-21T19:21:24;15.30;80.50
17994;DHT22;9122;48.406;9.984;2023-03-21T19:24:09;15.30;81.10
17994;DHT22;9122;48.406;9.984;2023-03-21T19:26:53;15.30;81.30
17994;DHT22;9122;48.406;9.984;2023-03-21T19:29:37;15.30;81.30
17994;DHT22;9122;48.406;9.984;2023-03-21T19:32:22;15.30;81.50
17994;DHT22;9122;48.406;9.984;2023-03-21T19:35:06;15.20;81.60
17994;DHT22;9122;48.406;9.984;2023-03-21T19:37:51;15.20;81.30
17994;DHT22;9122;48.406;9.984;2023-03-21T19:40:38;15.20;81.30
17994;DHT22;9122;48.406;9.984;2023-03-21T19:43:22;15.20;81.50
17994;DHT22;9122;48.406;9.984;2023-03-21T19:46:07;15.20;81.70
17994;DHT22;9122;48.406;9.984;2023-03-21T19:48:53;15.20;81.50
17994;DHT22;9122;48.406;9.984;2023-03-21T19:51:37;15.10;81.50
17994;DHT22;9122;48.406;9.984;2023-03-21T19:54:22;15.10;81.40
17994;DHT22;9122;48.406;9.984;2023-03-21T19:57:07;15.10;81.40
17994;DHT22;9122;48.406;9.984;2023-03-21T19:59:52;15.10;80.90
17994;DHT22;9122;48.406;9.984;2023-03-21T20:02:37;15.00;80.00
17994;DHT22;9122;48.406;9.984;2023-03-21T20:05:22;15.00;80.00
17994;DHT22;9122;48.406;9.984;2023-03-21T20:08:08;15.00;80.50
17994;DHT22;9122;48.406;9.984;2023-03-21T20:10:53;15.00;81.20
17994;DHT22;9122;48.406;9.984;2023-03-21T20:13:38;15.00;81.90
17994;DHT22;9122;48.406;9.984;2023-03-21T20:16:22;15.00;82.30
17994;DHT22;9122;48.406;9.984;2023-03-21T20:19:15;14.90;82.10
17994;DHT22;9122;48.406;9.984;2023-03-21T20:22:00;14.90;82.80
17994;DHT22;9122;48.406;9.984;2023-03-21T20:24:45;14.90;82.70
17994;DHT22;9122;48.406;9.984;2023-03-21T20:27:41;14.90;82.90
17994;DHT22;9122;48.406;9.984;2023-03-21T20:30:30;14.90;83.30
17994;DHT22;9122;48.406;9.984;2023-03-21T20:36:03;14.80;82.50
17994;DHT22;9122;48.406;9.984;2023-03-21T20:38:51;14.80;82.50
17994;DHT22;9122;48.406;9.984;2023-03-21T21:20:59;14.40;85.60
17994;DHT22;9122;48.406;9.984;2023-03-21T21:23:48;14.40;85.70